Time;durP1;ratioP1;P1;durP2;ratioP2;P2;SDS_P1;SDS_P2;PMS_P1;PMS_P2;Temp;Humidity;BMP_temperature;BMP_pressure;BME280_temperature;BME280_humidity;BME280_pressure;Samples;Min_cycle;Max_cycle;Signal;HPM_P1;HPM_P2
2022/07/06 00:02:23;;;;;;;1.77;1.20;;;;;;;-146.64;100.00;82754.28;5009160;28;20053;-77
2022/07/06 00:04:49;;;;;;;3.37;1.23;;;;;;;-146.64;100.00;85933.66;5006379;28;20448;-76
2022/07/06 00:07:14;;;;;;;1.23;1.10;;;;;;;-146.64;100.00;89646.09;4992014;28;20116;-75
2022/07/06 00:09:40;;;;;;;3.13;1.23;;;;;;;-146.64;100.00;92299.94;4991847;28;20128;-76
2022/07/06 00:12:06;;;;;;;3.90;1.63;;;;;;;-146.64;100.00;94158.66;4991249;28;20069;-76
2022/07/06 00:14:32;;;;;;;4.50;1.27;;;;;;;-146.64;100.00;92565.41;5007670;28;20080;-76
2022/07/06 00:16:57;;;;;;;3.43;1.33;;;;;;;-146.64;100.00;92299.94;4991782;28;20030;-75
2022/07/06 00:19:23;;;;;;;5.90;1.43;;;;;;;-146.64;100.00;93893.06;5008346;28;20076;-75
2022/07/06 00:21:48;;;;;;;7.50;1.47;;;;;;;-146.64;100.00;93096.44;5008394;28;20492;-75
2022/07/06 00:24:14;;;;;;;3.17;1.53;;;;;;;-146.64;100.00;94158.66;5007401;28;20029;-75
2022/07/06 00:26:39;;;;;;;4.70;1.40;;;;;;;-146.64;100.00;96549.72;5007896;28;20041;-76
2022/07/06 00:29:05;;;;;;;4.57;1.60;;;;;;;-146.64;100.00;95486.84;4994550;28;20030;-76
2022/07/06 00:31:30;;;;;;;6.20;1.53;;;;;;;-146.64;100.00;96283.97;4991731;28;20030;-76
2022/07/06 00:33:55;;;;;;;2.97;1.57;;;;;;;-146.64;100.00;98942.19;5014144;28;20113;-75
2022/07/06 00:36:22;;;;;;;5.33;1.33;;;;;;;-146.64;100.00;99739.97;5003578;28;20041;-76
2022/07/06 00:38:47;;;;;;;4.55;1.30;;;;;;;-146.64;100.00;98144.53;4994232;28;20104;-75
2022/07/06 00:41:13;;;;;;;4.60;1.60;;;;;;;-146.64;100.00;101070.00;4990629;28;20038;-75
2022/07/06 00:43:55;;;;;;;3.13;1.63;;;;;;;-146.64;100.00;101070.00;5013701;28;20032;-76
2022/07/06 00:46:34;;;;;;;3.95;1.30;;;;;;;-146.64;100.00;100803.97;5011673;28;20089;-76
2022/07/06 00:48:59;;;;;;;6.38;1.50;;;;;;;-146.64;100.00;101336.06;5010542;28;20022;-75
2022/07/06 00:51:32;;;;;;;2.97;1.20;;;;;;;-146.64;100.00;100005.94;5002882;28;20073;-75
2022/07/06 00:53:59;;;;;;;4.22;1.60;;;;;;;-146.64;100.00;97612.84;5003528;28;20121;-76
2022/07/06 00:56:26;;;;;;;3.97;1.40;;;;;;;-146.64;100.00;95221.19;5003518;28;20370;-75
2022/07/06 00:58:52;;;;;;;8.30;1.48;;;;;;;-146.64;100.00;93893.06;4961289;28;20038;-75
2022/07/06 01:01:17;;;;;;;9.50;2.50;;;;;;;-146.64;100.00;95752.53;5010593;28;20552;-76
2022/07/06 01:03:42;;;;;;;5.80;1.87;;;;;;;-146.64;100.00;96815.47;4990233;28;20045;-75
2022/07/06 01:06:08;;;;;;;2.10;1.30;;;;;;;-146.64;100.00;97878.69;4992229;28;20034;-75
2022/07/06 01:08:34;;;;;;;1.83;1.00;;;;;;;-146.64;100.00;97081.25;5006254;28;20055;-75
2022/07/06 01:11:00;;;;;;;3.67;1.37;;;;;;;-146.64;100.00;98676.28;5009908;28;20037;-77
2022/07/06 01:13:26;;;;;;;2.17;1.10;;;;;;;-146.64;100.00;98676.28;5021748;28;20462;-79
2022/07/06 01:15:52;;;;;;;6.30;1.30;;;;;;;-146.64;100.00;97081.25;4981188;28;20035;-77
2022/07/06 01:18:18;;;;;;;1.63;1.00;;;;;;;-146.64;100.00;99739.97;4993427;28;20045;-77
2022/07/06 01:20:43;;;;;;;6.70;2.07;;;;;;;-146.64;100.00;99739.97;5008476;28;20413;-79
2022/07/06 01:23:08;;;;;;;1.87;1.07;;;;;;;-146.64;100.00;98676.28;4993885;28;20516;-77
2022/07/06 01:25:34;;;;;;;2.77;1.47;;;;;;;-146.64;100.00;99474.03;5006003;28;20485;-77
2022/07/06 01:27:59;;;;;;;7.73;1.80;;;;;;;-146.64;100.00;101336.06;4992616;28;20061;-77
2022/07/06 01:30:25;;;;;;;5.27;1.67;;;;;;;-146.64;100.00;101070.00;5009807;28;20060;-79
2022/07/06 01:32:50;;;;;;;1.93;1.40;;;;;;;-146.64;100.00;101602.13;5009854;28;20030;-77
2022/07/06 01:35:16;;;;;;;2.30;1.40;;;;;;;-146.64;100.00;102134.31;4991865;28;20026;-75
2022/07/06 01:37:42;;;;;;;7.20;2.10;;;;;;;-146.64;100.00;102400.44;4997789;28;20026;-77
2022/07/06 01:40:09;;;;;;;4.87;1.80;;;;;;;-146.64;100.00;103997.56;4992794;28;20121;-77
2022/07/06 01:42:35;;;;;;;6.30;1.50;;;;;;;-146.64;100.00;105329.00;4993103;28;20452;-77
2022/07/06 01:45:01;;;;;;;4.70;2.10;;;;;;;-146.64;100.00;105329.00;4990924;28;20030;-76
2022/07/06 01:47:27;;;;;;;3.75;1.88;;;;;;;-146.64;100.00;105595.31;5008886;28;20029;-75
2022/07/06 01:49:54;;;;;;;4.60;1.60;;;;;;;-146.64;100.00;106394.44;5008508;28;20449;-75
2022/07/06 01:52:19;;;;;;;3.92;2.17;;;;;;;-146.64;100.00;107460.16;4993201;28;20026;-77
2022/07/06 01:54:48;;;;;;;5.80;1.90;;;;;;;-146.64;100.00;107726.63;5009423;28;20092;-77
2022/07/06 01:57:13;;;;;;;8.55;2.08;;;;;;;-146.64;100.00;107460.16;5010553;28;20109;-77
2022/07/06 01:59:40;;;;;;;5.43;2.00;;;;;;;-146.64;100.00;107193.69;4992060;28;20128;-76
2022/07/06 02:02:05;;;;;;;3.58;2.03;;;;;;;-146.64;100.00;105861.69;4992441;28;20113;-76
2022/07/06 02:04:30;;;;;;;8.83;2.03;;;;;;;-146.64;100.00;106927.25;4974702;28;20138;-78
2022/07/06 02:06:56;;;;;;;4.27;2.20;;;;;;;-146.64;100.00;106927.25;5000781;28;20030;-77
2022/07/06 02:09:21;;;;;;;6.53;1.90;;;;;;;-146.64;100.00;108526.16;5009453;28;20395;-77
2022/07/06 02:11:46;;;;;;;5.80;2.20;;;;;;;-146.64;100.00;109859.06;5011432;28;20456;-76
2022/07/06 02:14:12;;;;;;;5.73;2.13;;;;;;;-146.64;100.00;109325.84;5004045;28;20030;-76
2022/07/06 02:16:37;;;;;;;7.17;2.17;;;;;;;-146.64;100.00;110125.69;5006369;28;20093;-76
2022/07/06 02:19:03;;;;;;;3.33;2.07;;;;;;;-146.64;100.00;111192.41;5005787;28;20501;-76
2022/07/06 02:21:28;;;;;;;3.83;2.73;;;;;;;-146.64;100.00;110659.00;5002582;28;20502;-77
2022/07/06 02:23:54;;;;;;;5.60;2.20;;;;;;;-146.64;100.00;109859.06;5006187;28;20088;-78
2022/07/06 02:26:19;;;;;;;4.43;2.27;;;;;;;-146.64;100.00;109859.06;5010717;28;20092;-76
2022/07/06 02:28:47;;;;;;;3.13;2.17;;;;;;;-146.64;100.00;109592.44;4999963;28;20038;-76
2022/07/06 02:31:13;;;;;;;6.57;2.47;;;;;;;-146.64;100.00;109059.28;5005619;28;20029;-77
2022/07/06 02:33:38;;;;;;;5.70;2.10;;;;;;;-146.64;100.00;107726.63;5002596;28;20453;-76
2022/07/06 02:36:04;;;;;;;3.27;2.33;;;;;;;-146.64;100.00;109592.44;4993366;28;20505;-76
2022/07/06 02:38:30;;;;;;;7.80;2.63;;;;;;;-146.64;100.00;110125.69;5003997;28;20032;-77
2022/07/06 02:40:55;;;;;;;5.33;2.00;;;;;;;-146.64;100.00;109859.06;4993806;28;20030;-81
2022/07/06 02:43:20;;;;;;;7.87;2.30;;;;;;;-146.64;100.00;109859.06;4982905;28;20034;-80
2022/07/06 02:45:45;;;;;;;2.73;2.10;;;;;;;-146.64;100.00;110925.69;5009630;28;20084;-80
2022/07/06 02:48:12;;;;;;;3.27;2.37;;;;;;;-146.64;100.00;109059.28;5010247;28;20034;-80
2022/07/06 02:50:38;;;;;;;;;;;;;;;-146.64;100.00;110925.69;5010610;28;20037;-81
2022/07/06 02:53:03;;;;;;;4.10;2.28;;;;;;;-146.64;100.00;110125.69;5009678;28;19991;-80
2022/07/06 02:55:29;;;;;;;4.03;2.00;;;;;;;-146.64;100.00;111992.59;4993579;28;20069;-80
2022/07/06 02:57:54;;;;;;;4.10;2.10;;;;;;;-146.64;100.00;113326.63;5006268;28;20027;-80
2022/07/06 03:00:19;;;;;;;3.93;2.40;;;;;;;-146.64;100.00;112792.97;5002195;28;20035;-80
2022/07/06 03:02:45;;;;;;;3.17;1.70;;;;;;;-146.64;100.00;114394.19;5006834;28;20117;-80
2022/07/06 03:05:10;;;;;;;3.80;1.80;;;;;;;-146.64;100.00;114127.28;4990917;28;20028;-80
2022/07/06 03:07:36;;;;;;;5.77;1.90;;;;;;;-146.64;100.00;114127.28;4966391;28;20072;-80
2022/07/06 03:10:01;;;;;;;3.50;2.13;;;;;;;-146.64;100.00;114661.13;4991249;28;20033;-81
2022/07/06 03:12:27;;;;;;;8.87;2.00;;;;;;;-146.64;100.00;112792.97;4998286;28;20124;-80
2022/07/06 03:14:53;;;;;;;3.77;2.13;;;;;;;-146.64;100.00;112792.97;5009371;28;20393;-80
2022/07/06 03:17:19;;;;;;;3.92;2.10;;;;;;;-146.64;100.00;113860.38;5009593;28;20449;-80
2022/07/06 03:19:44;;;;;;;2.17;1.80;;;;;;;-146.64;100.00;112792.97;4984741;28;20092;-81
2022/07/06 03:22:10;;;;;;;2.30;1.73;;;;;;;-146.64;100.00;113860.38;5010395;28;20038;-80
2022/07/06 03:24:35;;;;;;;6.33;2.30;;;;;;;-146.64;100.00;114394.19;4995173;28;20474;-80
2022/07/06 03:27:00;;;;;;;3.73;2.10;;;;;;;-146.64;100.00;115195.03;5007394;28;20503;-80
2022/07/06 03:29:26;;;;;;;8.53;3.00;;;;;;;-146.64;100.00;115462.00;4992716;28;20022;-80
2022/07/06 03:31:51;;;;;;;3.87;1.90;;;;;;;-146.64;100.00;115462.00;4974251;28;20038;-81
2022/07/06 03:34:16;;;;;;;3.70;2.00;;;;;;;-146.64;100.00;115729.00;5001557;28;20469;-80
2022/07/06 03:36:42;;;;;;;2.53;1.63;;;;;;;-146.64;100.00;115729.00;4986749;28;20036;-80
2022/07/06 03:39:07;;;;;;;3.93;2.00;;;;;;;-146.64;100.00;114394.19;4990753;28;20032;-80
2022/07/06 03:41:33;;;;;;;2.65;1.90;;;;;;;-146.64;100.00;113593.50;5008873;28;20088;-80
2022/07/06 03:43:58;;;;;;;4.60;1.93;;;;;;;-146.64;100.00;113326.63;5009526;28;20037;-81
2022/07/06 03:46:24;;;;;;;8.80;1.90;;;;;;;-146.64;100.00;114394.19;5008990;28;20026;-80
2022/07/06 03:48:49;;;;;;;4.57;1.90;;;;;;;-146.64;100.00;113860.38;4994947;28;20092;-80
2022/07/06 03:51:16;;;;;;;3.83;2.07;;;;;;;-146.64;100.00;114928.06;5007650;28;20473;-80
2022/07/06 03:53:41;;;;;;;3.92;1.83;;;;;;;-146.64;100.00;114661.13;4999745;28;20046;-80
2022/07/06 03:58:50;;;;;;;2.45;1.65;;;;;;;-146.64;100.00;114127.28;5008340;28;20041;-80
2022/07/06 04:01:16;;;;;;;4.73;1.83;;;;;;;-146.64;100.00;113593.50;5009182;28;20030;-81
2022/07/06 04:03:41;;;;;;;2.83;1.73;;;;;;;-146.64;100.00;113326.63;4991508;28;20030;-80
2022/07/06 04:06:06;;;;;;;8.13;1.65;;;;;;;-146.64;100.00;113326.63;5011309;28;20113;-80
2022/07/06 04:08:32;;;;;;;3.93;2.00;;;;;;;-146.64;100.00;111725.84;5007620;28;20536;-81
2022/07/06 04:10:57;;;;;;;3.80;1.50;;;;;;;-146.64;100.00;111192.41;4993004;28;20084;-80
2022/07/06 04:13:25;;;;;;;5.17;1.70;;;;;;;-146.64;100.00;112792.97;4987019;28;20111;-81
2022/07/06 04:15:51;;;;;;;2.15;1.73;;;;;;;-146.64;100.00;111992.59;4987171;28;20055;-80
2022/07/06 04:18:18;;;;;;;5.57;1.70;;;;;;;-146.64;100.00;111192.41;5011923;28;20030;-81
2022/07/06 04:20:43;;;;;;;6.45;1.77;;;;;;;-146.64;100.00;110392.34;5015064;28;20040;-80
2022/07/06 04:23:09;;;;;;;4.33;1.63;;;;;;;-146.64;100.00;108526.16;4989930;28;20120;-81
2022/07/06 04:25:34;;;;;;;7.97;2.67;;;;;;;-146.64;100.00;107460.16;5003436;28;20041;-80
2022/07/06 04:28:00;;;;;;;3.20;1.47;;;;;;;-146.64;100.00;109325.84;4995425;28;20042;-81
2022/07/06 04:30:26;;;;;;;5.50;1.70;;;;;;;-146.64;100.00;109859.06;5014431;28;20025;-80
2022/07/06 04:32:51;;;;;;;4.00;1.33;;;;;;;-146.64;100.00;107460.16;5011415;28;20025;-81
2022/07/06 04:35:17;;;;;;;4.47;1.87;;;;;;;-146.64;100.00;108526.16;4992257;28;20380;-80
2022/07/06 04:37:45;;;;;;;4.33;1.63;;;;;;;-146.64;100.00;106927.25;5008870;28;20410;-81
2022/07/06 04:40:11;;;;;;;4.07;1.58;;;;;;;-146.64;100.00;105595.31;4991336;28;20037;-81
2022/07/06 04:42:37;;;;;;;4.03;1.90;;;;;;;-146.64;100.00;103198.94;4980010;28;20025;-81
2022/07/06 04:45:03;;;;;;;4.13;1.50;;;;;;;-146.64;100.00;102666.59;5012393;28;20057;-81
2022/07/06 04:47:28;;;;;;;2.53;1.60;;;;;;;-146.64;100.00;100537.94;5008458;28;20628;-81
2022/07/06 04:49:54;;;;;;;2.93;1.60;;;;;;;-146.64;100.00;100005.94;4989703;28;20117;-80
2022/07/06 04:52:21;;;;;;;3.60;2.37;;;;;;;-146.64;100.00;98676.28;5010392;28;20026;-80
2022/07/06 04:54:46;;;;;;;8.95;3.55;;;;;;;-146.64;100.00;98410.41;5006036;28;20036;-80
2022/07/06 04:57:11;;;;;;;4.60;2.83;;;;;;;-146.64;100.00;97081.25;5009730;28;20400;-80
2022/07/06 04:59:37;;;;;;;7.20;3.60;;;;;;;-146.64;100.00;96018.25;5002733;28;20026;-79
2022/07/06 05:02:02;;;;;;;2.73;2.33;;;;;;;-146.64;100.00;96815.47;4992680;28;20129;-79
2022/07/06 05:04:28;;;;;;;4.10;2.37;;;;;;;-146.64;100.00;97612.84;4999457;28;20508;-79
2022/07/06 05:06:53;;;;;;;2.73;2.17;;;;;;;-146.64;100.00;96549.72;4985673;28;20125;-79
2022/07/06 05:09:19;;;;;;;4.37;2.07;;;;;;;-146.64;100.00;96815.47;5010378;28;20099;-79
2022/07/06 05:11:44;;;;;;;5.80;1.90;;;;;;;-146.64;100.00;90442.06;5012879;28;20030;-79
2022/07/06 05:14:10;;;;;;;7.50;2.00;;;;;;;-146.64;100.00;85138.56;4997716;28;20065;-80
2022/07/06 05:16:35;;;;;;;4.63;1.43;;;;;;;-146.64;100.00;81695.03;4991937;28;20508;-80
2022/07/06 05:19:01;;;;;;;10.63;1.30;;;;;;;-146.64;100.00;57409.78;5000516;28;20026;-80
2022/07/06 05:21:26;;;;;;;3.10;1.13;;;;;;;-146.64;100.00;37211.94;5012269;28;20357;-80
2022/07/06 05:23:51;;;;;;;3.07;1.10;;;;;;;-146.64;100.00;37287.63;4986958;28;20402;-80
2022/07/06 05:26:17;;;;;;;6.40;1.40;;;;;;;-146.64;100.00;37774.50;4992270;28;20156;-80
2022/07/06 05:28:43;;;;;;;6.57;1.30;;;;;;;-146.64;100.00;37772.44;4990834;28;20504;-81
2022/07/06 05:31:08;;;;;;;2.33;1.20;;;;;;;-146.64;100.00;37774.50;4993367;28;20034;-80
2022/07/06 05:33:34;;;;;;;1.73;1.20;;;;;;;-146.64;100.00;37700.84;5005433;28;20026;-80
2022/07/06 05:35:59;;;;;;;2.47;1.33;;;;;;;-146.64;100.00;37805.19;5003515;28;20835;-81
2022/07/06 05:38:25;;;;;;;2.27;1.23;;;;;;;-146.64;100.00;37786.75;4998097;28;20283;-80
2022/07/06 05:40:50;;;;;;;3.10;1.27;;;;;;;-146.64;99.94;37786.75;5010357;28;20061;-82
2022/07/06 05:43:16;;;;;;;3.23;1.03;;;;;;;-146.64;94.97;37545.38;5003291;28;20041;-80
2022/07/06 05:45:41;;;;;;;3.60;1.40;;;;;;;-146.64;91.80;37582.19;5009098;28;20034;-80
2022/07/06 05:50:51;;;;;;;1.50;0.85;;;;;;;-146.64;83.60;37230.34;5005459;28;20096;-80
2022/07/06 05:53:18;;;;;;;;;;;;;;;-146.64;82.31;37299.88;5006094;28;20397;-80
2022/07/06 05:55:43;;;;;;;3.10;1.63;;;;;;;-146.64;79.04;37060.56;4992440;28;20000;-80
2022/07/06 05:58:08;;;;;;;2.27;1.10;;;;;;;-146.64;76.93;37070.78;5006174;28;20433;-80
2022/07/06 06:00:34;;;;;;;2.63;1.00;;;;;;;-146.64;73.41;37128.06;4993244;28;20041;-80
2022/07/06 06:03:00;;;;;;;3.28;0.82;;;;;;;-146.64;73.13;37128.06;5002153;28;20057;-81
2022/07/06 06:05:25;;;;;;;4.25;1.10;;;;;;;-146.64;72.60;37078.97;5009390;28;20026;-81
2022/07/06 06:07:52;;;;;;;2.53;1.20;;;;;;;-146.64;70.44;36825.34;5003593;28;20096;-80
2022/07/06 06:10:18;;;;;;;6.82;1.05;;;;;;;-146.64;68.67;36890.81;4994944;28;20035;-81
2022/07/06 06:12:46;;;;;;;4.20;1.05;;;;;;;-146.64;66.14;36665.81;4993106;28;20034;-81
2022/07/06 06:15:12;;;;;;;2.03;0.93;;;;;;;-146.64;65.82;36809.00;5005054;28;20059;-80
2022/07/06 06:17:38;;;;;;;1.50;1.00;;;;;;;-146.64;66.87;36684.22;4986773;28;20061;-80
2022/07/06 06:20:06;;;;;;;4.97;1.10;;;;;;;-146.64;65.05;36837.63;5001561;28;20136;-81
2022/07/06 06:22:43;;;;;;;2.00;0.80;;;;;;;-146.64;64.16;36911.25;4992790;28;20033;-80
2022/07/06 06:25:08;;;;;;;1.30;0.68;;;;;;;-146.64;58.54;36831.50;5010210;28;20036;-81
2022/07/06 06:27:35;;;;;;;4.30;1.30;;;;;;;-146.64;57.82;36735.38;4999427;28;20034;-81
2022/07/06 06:30:01;;;;;;;3.30;0.63;;;;;;;-146.64;56.19;36843.75;5002428;28;20030;-81
2022/07/06 06:32:26;;;;;;;3.47;0.70;;;;;;;-146.64;56.89;36845.81;4979576;28;20033;-81
2022/07/06 06:34:52;;;;;;;2.85;0.90;;;;;;;-146.64;56.32;36598.34;5003953;28;20030;-81
2022/07/06 06:37:17;;;;;;;1.77;0.70;;;;;;;-146.64;53.43;36727.19;4993285;28;20031;-81
2022/07/06 06:39:42;;;;;;;0.80;0.60;;;;;;;-146.64;53.98;36815.13;4998737;28;20272;-80
2022/07/06 06:42:08;;;;;;;2.77;0.67;;;;;;;-146.64;55.86;36514.47;5001082;28;20310;-81
2022/07/06 06:44:34;;;;;;;3.33;0.90;;;;;;;-146.64;53.37;36463.34;4989003;28;20034;-81
2022/07/06 06:47:00;;;;;;;3.03;0.47;;;;;;;-146.64;52.48;36894.91;4991239;28;20037;-81
2022/07/06 06:49:25;;;;;;;0.73;0.47;;;;;;;-146.64;55.00;36845.81;4999244;28;20061;-81
2022/07/06 06:51:50;;;;;;;3.93;0.70;;;;;;;-146.64;53.78;36919.44;4992772;28;20434;-80
2022/07/06 06:54:16;;;;;;;4.53;0.80;;;;;;;-146.64;53.18;36901.03;5005821;28;20279;-79
2022/07/06 06:56:41;;;;;;;6.23;1.00;;;;;;;-146.64;52.07;36827.41;4996894;28;20510;-79
2022/07/06 06:59:10;;;;;;;1.43;0.73;;;;;;;-146.64;52.27;36653.56;5007281;28;20279;-80
2022/07/06 07:01:35;;;;;;;9.93;0.70;;;;;;;-146.64;52.69;36751.72;4986121;28;20037;-81
2022/07/06 07:04:01;;;;;;;2.27;0.80;;;;;;;-146.64;50.60;36620.81;4992434;28;20543;-81
2022/07/06 07:06:26;;;;;;;8.43;0.83;;;;;;;-146.64;52.83;36588.09;4992356;28;20291;-80
2022/07/06 07:08:51;;;;;;;3.00;0.70;;;;;;;-146.64;53.28;36659.69;5004233;28;20026;-78
2022/07/06 07:11:17;;;;;;;5.17;0.80;;;;;;;-146.64;51.41;36829.44;5002785;28;20291;-79
2022/07/06 07:13:42;;;;;;;4.67;0.90;;;;;;;-146.64;51.48;36702.63;4997017;28;20034;-77
2022/07/06 07:16:07;;;;;;;3.93;0.70;;;;;;;-146.64;50.33;36768.09;5006704;28;20275;-78
2022/07/06 07:18:35;;;;;;;2.17;0.60;;;;;;;-146.64;51.22;36939.88;4988962;28;20037;-78
2022/07/06 07:21:01;;;;;;;4.03;0.70;;;;;;;-146.64;51.84;36980.81;5006007;28;20037;-78
2022/07/06 07:23:26;;;;;;;1.77;1.00;;;;;;;-146.64;50.39;37029.88;5010345;28;20372;-77
2022/07/06 07:25:52;;;;;;;0.90;0.53;;;;;;;-146.64;49.86;37017.63;4992089;28;20319;-77
2022/07/06 07:28:17;;;;;;;2.57;0.70;;;;;;;-146.64;50.76;36956.25;4995859;28;20746;-80
2022/07/06 07:30:42;;;;;;;0.80;0.80;;;;;;;-146.64;51.18;36841.72;4985248;28;20048;-75
2022/07/06 07:33:08;;;;;;;3.27;1.00;;;;;;;-146.64;50.50;36721.03;5004403;28;20040;-77
2022/07/06 07:35:33;;;;;;;1.77;0.50;;;;;;;-146.64;49.54;36931.72;5003100;28;20034;-77
2022/07/06 07:38:00;;;;;;;4.17;0.80;;;;;;;-146.64;48.68;37052.38;5002266;28;20021;-78
2022/07/06 07:40:25;;;;;;;2.58;0.60;;;;;;;-146.64;50.22;37213.97;4984312;28;20025;-78
2022/07/06 07:42:50;;;;;;;1.13;0.50;;;;;;;-146.64;49.20;37183.28;4998941;28;20288;-76
2022/07/06 07:45:17;;;;;;;2.93;0.77;;;;;;;-146.64;50.32;37072.84;4987413;28;20076;-78
2022/07/06 07:47:43;;;;;;;;;;;;;;;-146.64;50.40;37060.56;5013026;28;20034;-76
2022/07/06 07:50:10;;;;;;;0.60;0.50;;;;;;;-146.64;48.90;36931.72;4997615;28;20016;-77
2022/07/06 07:52:36;;;;;;;3.42;0.80;;;;;;;-146.64;48.10;37185.34;4998903;28;20022;-77
2022/07/06 07:55:04;;;;;;;1.60;0.50;;;;;;;-146.64;49.26;37048.28;4985223;28;20057;-78
2022/07/06 07:57:29;;;;;;;2.08;0.60;;;;;;;-146.64;48.21;36747.63;4987776;28;20428;-78
2022/07/06 07:59:55;;;;;;;4.43;0.90;;;;;;;-146.64;46.37;36984.88;5011809;28;20022;-78
2022/07/06 08:02:20;;;;;;;1.47;0.50;;;;;;;-146.64;48.82;37291.72;4988077;28;20512;-77
2022/07/06 08:04:46;;;;;;;7.03;0.80;;;;;;;-146.64;49.31;37316.25;4986290;28;20116;-78
2022/07/06 08:07:11;;;;;;;2.00;0.73;;;;;;;-146.64;49.87;37271.25;5006758;28;20049;-77
2022/07/06 08:09:36;;;;;;;3.00;0.50;;;;;;;-146.64;49.71;37117.84;4995409;28;20030;-79
2022/07/06 08:12:02;;;;;;;0.77;0.60;;;;;;;-146.64;48.68;37277.38;5018159;28;20117;-78
2022/07/06 08:14:28;;;;;;;4.65;0.60;;;;;;;-146.64;48.96;37138.28;4975221;28;20077;-79
2022/07/06 08:16:53;;;;;;;0.60;0.47;;;;;;;-146.64;48.32;37250.81;4994540;28;20107;-80
2022/07/06 08:19:19;;;;;;;0.60;0.50;;;;;;;-146.64;49.17;37197.63;4986819;28;20033;-80
2022/07/06 08:21:45;;;;;;;1.00;0.50;;;;;;;-146.64;47.88;37263.06;4989722;28;20489;-81
2022/07/06 08:24:11;;;;;;;0.65;0.50;;;;;;;-146.64;46.61;37232.38;5008059;28;20124;-80
2022/07/06 08:26:37;;;;;;;1.50;0.60;;;;;;;-146.64;45.88;37138.28;5004437;28;20180;-79
2022/07/06 08:29:03;;;;;;;1.17;0.60;;;;;;;-146.64;45.33;37089.22;4999398;28;20060;-80
2022/07/06 08:31:31;;;;;;;4.38;0.70;;;;;;;-146.64;45.02;37275.34;4986719;28;20041;-79
2022/07/06 08:33:57;;;;;;;6.13;0.60;;;;;;;-146.64;46.96;37173.06;5003099;28;20461;-79
2022/07/06 08:36:25;;;;;;;1.50;0.77;;;;;;;-146.64;47.47;37111.72;5006615;28;20126;-79
2022/07/06 08:38:51;;;;;;;0.95;0.70;;;;;;;-146.64;48.18;37056.47;5000274;28;20049;-79
2022/07/06 08:41:17;;;;;;;1.20;0.50;;;;;;;-146.64;47.07;37140.34;5006886;28;20036;-80
2022/07/06 08:43:43;;;;;;;2.28;0.60;;;;;;;-146.64;45.60;37271.25;4986142;28;20038;-78
2022/07/06 08:46:08;;;;;;;0.73;0.60;;;;;;;-146.64;45.65;37115.78;5001976;28;20508;-79
2022/07/06 08:48:38;;;;;;;2.23;0.40;;;;;;;-146.64;46.64;37261.03;4984887;28;20396;-78
2022/07/06 08:51:04;;;;;;;2.33;0.75;;;;;;;-146.64;45.42;37373.53;5005954;28;20113;-78
2022/07/06 08:53:30;;;;;;;1.73;0.57;;;;;;;-146.64;46.42;37348.97;5001433;28;20064;-78
2022/07/06 08:55:55;;;;;;;6.20;0.87;;;;;;;-146.64;45.93;37385.81;5006442;28;20454;-77
2022/07/06 08:58:23;;;;;;;1.40;0.50;;;;;;;-146.64;47.60;37357.16;5004759;28;20038;-80
2022/07/06 09:00:49;;;;;;;3.78;0.63;;;;;;;-146.64;46.92;37412.41;4988581;28;20066;-77
2022/07/06 09:03:14;;;;;;;1.70;0.57;;;;;;;-146.64;47.07;37406.25;5004535;28;20113;-78
2022/07/06 09:05:40;;;;;;;2.80;0.50;;;;;;;-146.64;46.50;37271.25;4978804;28;20061;-78
2022/07/06 09:08:06;;;;;;;0.75;0.40;;;;;;;-146.64;47.00;37211.94;4985144;28;20033;-79
2022/07/06 09:10:31;;;;;;;4.60;0.70;;;;;;;-146.64;46.88;37254.88;5000747;28;20561;-79
2022/07/06 09:13:08;;;;;;;3.30;0.57;;;;;;;-146.64;46.19;37263.06;5004151;28;20026;-78
2022/07/06 09:15:34;;;;;;;0.88;0.40;;;;;;;-146.64;45.95;37218.06;4986951;28;20084;-77
2022/07/06 09:18:01;;;;;;;1.35;0.80;;;;;;;-146.64;44.50;37242.63;4991441;28;20044;-78
2022/07/06 09:20:27;;;;;;;2.13;0.40;;;;;;;-146.64;45.85;37246.72;4990839;28;20022;-77
2022/07/06 09:23:00;;;;;;;2.05;0.65;;;;;;;-146.64;44.56;37398.06;5020598;28;20524;-77
2022/07/06 09:25:26;;;;;;;1.63;1.02;;;;;;;-146.64;45.00;37439.00;5004546;28;20026;-77
2022/07/06 09:27:54;;;;;;;0.93;0.55;;;;;;;-146.64;45.29;37416.50;5007035;28;20049;-77
2022/07/06 09:30:22;;;;;;;1.60;0.50;;;;;;;-146.64;45.73;37303.97;5005497;28;20060;-75
2022/07/06 09:32:51;;;;;;;5.38;1.00;;;;;;;-146.64;45.00;37406.25;4988579;28;20029;-77
2022/07/06 09:35:22;;;;;;;0.82;0.40;;;;;;;-146.64;46.50;37258.97;5003398;28;20030;-78
2022/07/06 09:37:47;;;;;;;1.35;0.60;;;;;;;-146.64;44.64;37148.53;4991916;28;20100;-78
2022/07/06 09:40:19;;;;;;;4.13;1.10;;;;;;;-146.64;45.23;37250.81;5003383;28;20030;-77
2022/07/06 09:42:45;;;;;;;3.22;0.68;;;;;;;-146.64;44.78;37177.16;5003400;28;20042;-77
2022/07/06 09:45:10;;;;;;;9.30;1.00;;;;;;;-146.64;44.67;37101.47;4998831;28;20045;-77
2022/07/06 09:47:37;;;;;;;2.53;0.70;;;;;;;-146.64;42.59;37168.97;5005827;28;20466;-78
2022/07/06 09:50:05;;;;;;;8.95;1.13;;;;;;;-146.64;44.48;37091.25;4996779;28;20026;-76
2022/07/06 09:52:33;;;;;;;1.00;0.50;;;;;;;-146.64;43.15;37054.44;5005199;28;20413;-78
2022/07/06 09:54:59;;;;;;;2.28;0.60;;;;;;;-146.64;43.22;37070.78;5005414;28;20037;-77
2022/07/06 09:57:24;;;;;;;1.90;0.60;;;;;;;-146.64;42.93;37072.84;5002509;28;20027;-76
2022/07/06 09:59:51;;;;;;;2.63;0.60;;;;;;;-146.64;44.57;37148.53;4995006;28;20037;-75
2022/07/06 10:02:17;;;;;;;1.58;0.50;;;;;;;-146.64;43.67;37042.16;5007362;28;20401;-77
2022/07/06 10:04:44;;;;;;;2.70;0.87;;;;;;;-146.64;43.09;37085.13;4985220;28;20036;-74
2022/07/06 10:07:10;;;;;;;7.57;1.05;;;;;;;-146.64;43.73;37115.78;5000299;28;20029;-77
2022/07/06 10:09:37;;;;;;;0.60;0.60;;;;;;;-146.64;43.82;37128.06;4983020;28;20128;-74
2022/07/06 10:12:04;;;;;;;5.07;0.70;;;;;;;-146.64;43.51;37134.22;5000206;28;20060;-76
2022/07/06 10:14:32;;;;;;;1.92;0.70;;;;;;;-146.64;43.01;37156.72;4979845;28;20038;-75
2022/07/06 10:17:03;;;;;;;3.08;0.77;;;;;;;-146.64;43.52;37029.88;4993557;28;20034;-77
2022/07/06 10:19:30;;;;;;;2.95;0.70;;;;;;;-146.64;43.92;36825.34;5005714;28;20018;-78
2022/07/06 10:22:02;;;;;;;1.90;0.57;;;;;;;-146.64;44.41;36665.81;4984491;28;20393;-76
2022/07/06 10:24:28;;;;;;;1.88;0.80;;;;;;;-146.64;43.90;36706.72;5004826;28;20433;-78
2022/07/06 10:26:54;;;;;;;5.63;1.30;;;;;;;-146.64;42.96;36485.84;5008299;28;20052;-76
2022/07/06 10:29:20;;;;;;;2.63;0.80;;;;;;;-146.64;42.33;36745.59;4987610;28;20541;-78
2022/07/06 10:31:48;;;;;;;3.05;0.65;;;;;;;-146.64;42.90;36735.38;4996688;28;20097;-76
2022/07/06 10:34:15;;;;;;;2.95;0.70;;;;;;;-146.64;42.51;36487.91;5007218;28;20495;-77
2022/07/06 10:36:42;;;;;;;1.80;1.05;;;;;;;-146.64;42.78;36747.63;4979858;28;20124;-77
2022/07/06 10:41:53;;;;;;;2.42;0.93;;;;;;;-146.64;44.21;36911.25;5002052;28;20032;-78
2022/07/06 10:44:28;;;;;;;0.85;0.73;;;;;;;-146.64;44.52;36714.91;5005189;28;20037;-77
2022/07/06 10:47:06;;;;;;;5.82;0.80;;;;;;;-146.64;44.95;36579.94;4997625;28;20041;-77
2022/07/06 10:49:48;;;;;;;3.35;0.80;;;;;;;-146.64;43.82;36788.53;4987391;28;20034;-77
2022/07/06 10:52:16;;;;;;;1.02;0.63;;;;;;;-146.64;44.27;36653.56;5010448;28;20029;-79
2022/07/06 10:54:43;;;;;;;2.13;1.10;;;;;;;-146.64;45.03;36682.19;5001007;28;20038;-78
2022/07/06 10:57:10;;;;;;;3.85;0.95;;;;;;;-146.64;45.15;36543.09;5002533;28;20034;-76
2022/07/06 10:59:35;;;;;;;3.28;0.80;;;;;;;-146.64;44.62;36559.47;4978951;28;20096;-76
2022/07/06 11:02:14;;;;;;;1.77;0.77;;;;;;;-146.64;44.09;36608.56;5004157;28;20425;-77
2022/07/06 11:04:42;;;;;;;2.40;0.80;;;;;;;-146.64;44.43;36596.28;5002123;28;20531;-77
2022/07/06 11:07:10;;;;;;;1.98;0.70;;;;;;;-146.64;45.54;36463.34;4974594;28;20026;-77
2022/07/06 11:09:36;;;;;;;2.22;0.68;;;;;;;-146.64;45.06;36581.97;5001077;28;20124;-77
2022/07/06 11:12:16;;;;;;;3.30;0.90;;;;;;;-146.64;45.02;36422.44;5005186;28;20445;-77
2022/07/06 11:14:43;;;;;;;3.70;0.70;;;;;;;-146.64;45.61;36602.41;5004936;28;20124;-78
2022/07/06 11:17:10;;;;;;;6.50;1.00;;;;;;;-146.64;45.28;36530.84;5008030;28;20037;-77